createdAt,value
2019-04-01T00:01:11.381Z,100901.33
2019-04-01T00:03:41.018Z,100899.64
2019-04-01T00:06:10.558Z,100904.00
2019-04-01T00:08:40.171Z,100897.81
2019-04-01T00:11:09.828Z,100905.69
2019-04-01T00:13:39.463Z,100900.36
2019-04-01T00:16:09.148Z,100902.92
2019-04-01T00:18:38.705Z,100900.88
2019-04-01T00:21:08.500Z,100899.15
2019-04-01T00:23:38.003Z,100897.45
2019-04-01T00:26:07.672Z,100902.79
2019-04-01T00:28:37.365Z,100901.00
2019-04-01T00:31:07.005Z,100897.00
2019-04-01T00:33:36.733Z,100899.66
2019-04-01T00:36:06.442Z,100897.36
2019-04-01T00:38:36.107Z,100898.69
2019-04-01T00:41:05.744Z,100895.89
2019-04-01T00:44:00.355Z,100897.48
2019-04-01T00:46:31.530Z,100895.08
2019-04-01T00:49:01.139Z,100896.17
2019-04-01T00:51:30.766Z,100894.97
2019-04-01T00:54:00.450Z,100894.22
2019-04-01T00:56:30.103Z,100891.69
2019-04-01T00:58:59.671Z,100899.94
2019-04-01T01:01:29.342Z,100895.13
2019-04-01T01:03:59.016Z,100894.27
2019-04-01T01:06:28.661Z,100897.06
2019-04-01T01:08:58.305Z,100895.83
2019-04-01T01:11:27.947Z,100900.31
2019-04-01T01:13:57.620Z,100895.47
2019-04-01T01:16:27.385Z,100892.80
2019-04-01T01:18:57.070Z,100900.67
2019-04-01T01:21:26.695Z,100892.21
2019-04-01T01:23:56.380Z,100897.80
2019-04-01T01:26:26.019Z,100891.61
2019-04-01T01:28:55.700Z,100893.56
2019-04-01T01:31:25.347Z,100883.50
2019-04-01T01:33:55.001Z,100885.20
2019-04-01T01:36:24.678Z,100880.61
2019-04-01T01:38:54.290Z,100878.19
2019-04-01T01:41:23.963Z,100878.53
2019-04-01T01:43:53.420Z,100879.04
2019-04-01T01:46:23.089Z,100884.98
2019-04-01T01:48:52.855Z,100884.63
2019-04-01T01:51:22.616Z,100874.69
2019-04-01T01:53:52.281Z,100882.68
2019-04-01T01:56:22.024Z,100870.58
2019-04-01T01:58:51.692Z,100873.73
2019-04-01T02:01:21.341Z,100868.75
2019-04-01T02:03:51.024Z,100868.13
2019-04-01T02:06:20.760Z,100876.12
2019-04-01T02:08:50.348Z,100871.77
2019-04-01T02:11:20.000Z,100879.16
2019-04-01T02:13:49.755Z,100879.02
2019-04-01T02:16:19.477Z,100873.70
2019-04-01T02:18:49.197Z,100874.53
2019-04-01T02:21:18.856Z,100866.05
2019-04-01T02:23:48.469Z,100874.41
2019-04-01T02:26:18.211Z,100870.05
2019-04-01T02:28:47.856Z,100866.79
2019-04-01T02:31:17.626Z,100864.37
2019-04-01T02:33:47.280Z,100860.84
2019-04-01T02:36:16.973Z,100865.08
2019-04-01T02:38:46.616Z,100859.16
2019-04-01T02:41:16.393Z,100871.63
2019-04-01T02:43:46.009Z,100868.45
2019-04-01T02:46:15.703Z,100867.13
2019-04-01T02:48:45.434Z,100867.13
2019-04-01T02:51:15.094Z,100864.10
2019-04-01T02:53:44.766Z,100861.92
2019-04-01T02:56:14.414Z,100864.59
2019-04-01T02:58:44.103Z,100862.98
2019-04-01T03:01:13.739Z,100854.03
2019-04-01T03:03:43.381Z,100856.69
2019-04-01T03:06:12.968Z,100849.55
2019-04-01T03:08:42.605Z,100851.85
2019-04-01T03:11:12.270Z,100842.53
2019-04-01T03:13:41.918Z,100847.14
2019-04-01T03:16:11.590Z,100847.37
2019-04-01T03:18:41.258Z,100845.66
2019-04-01T03:21:10.925Z,100846.02
2019-04-01T03:23:40.564Z,100847.34
2019-04-01T03:26:10.246Z,100847.59
2019-04-01T03:28:39.879Z,100847.50
2019-04-01T03:31:09.543Z,100845.21
2019-04-01T03:33:39.108Z,100847.39
2019-04-01T03:36:08.846Z,100844.37
2019-04-01T03:38:38.542Z,100843.52
2019-04-01T03:41:08.198Z,100844.41
2019-04-01T03:43:37.853Z,100846.46
2019-04-01T03:46:07.503Z,100846.09
2019-04-01T03:48:37.168Z,100841.38
2019-04-01T03:51:06.820Z,100849.56
2019-04-01T03:53:36.422Z,100847.52
2019-04-01T03:56:06.895Z,100847.63
2019-04-01T03:58:36.556Z,100853.06
2019-04-01T04:01:06.292Z,100850.84
2019-04-01T04:03:35.993Z,100850.96
2019-04-01T04:06:05.649Z,100858.21
2019-04-01T04:08:35.326Z,100858.56
2019-04-01T04:11:05.260Z,100849.81
2019-04-01T04:13:34.821Z,100855.72
2019-04-01T04:16:04.510Z,100862.25
2019-04-01T04:18:34.109Z,100859.47
2019-04-01T04:21:03.851Z,100862.55
2019-04-01T04:23:33.448Z,100864.97
2019-04-01T04:26:03.112Z,100863.28
2019-04-01T04:31:06.444Z,100860.62
2019-04-01T04:33:36.089Z,100861.35
2019-04-01T04:36:05.935Z,100866.92
2019-04-01T04:38:35.623Z,100857.73
2019-04-01T04:41:05.284Z,100863.26
2019-04-01T04:43:34.924Z,100867.45
2019-04-01T04:46:04.575Z,100863.45
2019-04-01T04:48:34.257Z,100860.91
2019-04-01T04:51:03.898Z,100867.48
2019-04-01T04:53:33.610Z,100852.02
2019-04-01T04:56:03.385Z,100862.73
2019-04-01T04:58:33.097Z,100866.55
2019-04-01T05:01:02.683Z,100870.12
2019-04-01T05:03:32.382Z,100862.09
2019-04-01T05:06:02.034Z,100867.16
2019-04-01T05:08:31.772Z,100863.92
2019-04-01T05:11:02.339Z,100870.28
2019-04-01T05:13:32.039Z,100873.59
2019-04-01T05:16:01.735Z,100880.12
2019-04-01T05:18:31.533Z,100879.69
2019-04-01T05:21:01.196Z,100878.98
2019-04-01T05:23:30.953Z,100877.90
2019-04-01T05:26:00.613Z,100879.89
2019-04-01T05:28:30.480Z,100876.77
2019-04-01T05:31:01.177Z,100869.45
2019-04-01T05:33:30.816Z,100880.52
2019-04-01T05:36:00.373Z,100887.06
2019-04-01T05:38:30.040Z,100883.48
2019-04-01T05:40:59.808Z,100884.13
2019-04-01T05:43:29.849Z,100884.44
2019-04-01T05:45:59.510Z,100885.30
2019-04-01T05:48:31.660Z,100880.23
2019-04-01T05:51:01.193Z,100880.36
2019-04-01T05:53:30.894Z,100883.89
2019-04-01T05:56:00.543Z,100887.61
2019-04-01T05:58:30.397Z,100880.42
2019-04-01T06:01:05.575Z,100885.09
2019-04-01T06:03:35.450Z,100889.73
2019-04-01T06:06:05.194Z,100888.32
2019-04-01T06:08:34.970Z,100888.94
2019-04-01T06:11:04.622Z,100894.24
2019-04-01T06:13:34.264Z,100899.05
2019-04-01T06:16:04.047Z,100891.73
2019-04-01T06:18:33.785Z,100890.48
2019-04-01T06:21:03.584Z,100890.11
2019-04-01T06:23:33.423Z,100890.30
2019-04-01T06:26:03.081Z,100892.20
2019-04-01T06:28:32.782Z,100895.65
2019-04-01T06:31:02.518Z,100890.79
2019-04-01T06:33:32.163Z,100900.66
2019-04-01T06:36:01.803Z,100894.94
2019-04-01T06:38:31.453Z,100898.78
2019-04-01T06:41:01.070Z,100902.55
2019-04-01T06:43:30.725Z,100898.41
2019-04-01T06:46:00.479Z,100897.11
2019-04-01T06:48:30.113Z,100901.63
2019-04-01T06:50:59.797Z,100901.44
2019-04-01T06:53:29.450Z,100902.75
2019-04-01T06:55:59.105Z,100904.72
2019-04-01T06:58:28.722Z,100901.98
2019-04-01T07:00:58.345Z,100906.45
2019-04-01T07:03:28.114Z,100901.84
2019-04-01T07:05:57.778Z,100901.20
2019-04-01T07:08:27.353Z,100903.66
2019-04-01T07:10:57.092Z,100900.31
2019-04-01T07:13:26.652Z,100892.39
2019-04-01T07:15:56.412Z,100896.78
2019-04-01T07:18:26.095Z,100890.41
2019-04-01T07:20:55.618Z,100886.55
2019-04-01T07:23:25.306Z,100888.96
2019-04-01T07:25:54.939Z,100882.22
2019-04-01T07:28:24.592Z,100890.45
2019-04-01T07:30:54.369Z,100886.39
2019-04-01T07:33:24.035Z,100884.67
2019-04-01T07:35:53.675Z,100887.89
2019-04-01T07:38:23.372Z,100886.92
2019-04-01T07:40:53.505Z,100881.48
2019-04-01T07:43:23.080Z,100880.06
2019-04-01T07:45:53.035Z,100886.73
2019-04-01T07:48:22.802Z,100885.05
2019-04-01T07:50:52.568Z,100884.13
2019-04-01T07:53:22.208Z,100874.28
2019-04-01T07:55:51.796Z,100882.20
2019-04-01T07:58:21.553Z,100882.53
2019-04-01T08:00:51.380Z,100880.03
2019-04-01T08:03:21.231Z,100876.72
2019-04-01T08:05:51.087Z,100876.05
2019-04-01T08:08:21.658Z,100883.38
2019-04-01T08:10:51.224Z,100877.52
2019-04-01T08:13:20.785Z,100874.97
2019-04-01T08:15:50.530Z,100875.48
2019-04-01T08:18:20.169Z,100874.00
2019-04-01T08:20:49.768Z,100878.77
2019-04-01T08:23:19.313Z,100880.11
2019-04-01T08:25:48.974Z,100877.86
2019-04-01T08:28:18.616Z,100870.59
2019-04-01T08:30:49.357Z,100877.80
2019-04-01T08:33:19.229Z,100878.95
2019-04-01T08:35:48.815Z,100875.84
2019-04-01T08:38:18.613Z,100882.48
2019-04-01T08:40:48.378Z,100882.95
2019-04-01T08:43:18.016Z,100879.15
2019-04-01T08:45:47.578Z,100878.19
2019-04-01T08:48:17.143Z,100876.88
2019-04-01T08:50:46.788Z,100879.38
2019-04-01T08:53:16.549Z,100874.77
2019-04-01T08:55:46.219Z,100877.87
2019-04-01T08:58:16.796Z,100868.64
2019-04-01T09:00:46.447Z,100862.89
2019-04-01T09:03:16.088Z,100853.87
2019-04-01T09:05:45.795Z,100867.08
2019-04-01T09:08:16.319Z,100859.36
2019-04-01T09:10:46.360Z,100857.05
2019-04-01T09:13:16.387Z,100858.62
2019-04-01T09:15:45.953Z,100857.21
2019-04-01T09:18:15.512Z,100850.76
2019-04-01T09:20:45.163Z,100847.77
2019-04-01T09:23:14.836Z,100861.31
2019-04-01T09:25:44.536Z,100854.23
2019-04-01T09:28:14.496Z,100850.77
2019-04-01T09:30:44.222Z,100840.05
2019-04-01T09:33:13.895Z,100846.95
2019-04-01T09:35:44.287Z,100838.71
2019-04-01T09:38:14.066Z,100841.86
2019-04-01T09:40:43.807Z,100836.98
2019-04-01T09:43:14.301Z,100835.52
2019-04-01T09:45:44.353Z,100838.97
2019-04-01T09:48:14.136Z,100832.34
2019-04-01T09:50:43.781Z,100835.20
2019-04-01T09:53:13.580Z,100826.19
2019-04-01T09:55:43.437Z,100824.24
2019-04-01T09:58:13.063Z,100827.06
2019-04-01T10:00:42.733Z,100821.11
2019-04-01T10:03:12.374Z,100811.27
2019-04-01T10:05:42.226Z,100811.62
2019-04-01T10:08:11.870Z,100814.48
2019-04-01T10:10:41.579Z,100810.33
2019-04-01T10:13:11.216Z,100810.66
2019-04-01T10:15:40.875Z,100804.81
2019-04-01T10:18:10.508Z,100799.61
2019-04-01T10:20:40.299Z,100795.25
2019-04-01T10:23:09.953Z,100791.72
2019-04-01T10:25:39.597Z,100788.66
2019-04-01T10:28:09.649Z,100783.59
2019-04-01T10:30:41.504Z,100788.40
2019-04-01T10:33:10.886Z,100775.78
2019-04-01T10:35:40.296Z,100786.20
2019-04-01T10:38:09.707Z,100776.95
2019-04-01T10:40:39.160Z,100770.52
2019-04-01T10:43:08.534Z,100764.80
2019-04-01T10:45:37.963Z,100765.24
2019-04-01T10:48:07.399Z,100763.13
2019-04-01T10:50:36.875Z,100762.37
2019-04-01T10:53:06.379Z,100760.31
2019-04-01T10:55:35.835Z,100755.94
2019-04-01T10:58:05.391Z,100756.98
2019-04-01T11:00:34.799Z,100759.33
2019-04-01T11:03:06.210Z,100752.20
2019-04-01T11:05:35.316Z,100750.08
2019-04-01T11:08:04.841Z,100739.40
2019-04-01T11:10:34.276Z,100742.81
2019-04-01T11:13:03.699Z,100749.06
2019-04-01T11:15:33.145Z,100739.33
2019-04-01T11:18:02.565Z,100741.84
2019-04-01T11:20:31.970Z,100736.92
2019-04-01T11:23:02.803Z,100733.27
2019-04-01T11:25:32.553Z,100728.39
2019-04-01T11:28:02.071Z,100740.17
2019-04-01T11:30:31.459Z,100725.52
2019-04-01T11:33:00.980Z,100730.41
2019-04-01T11:35:30.384Z,100724.39
2019-04-01T11:37:59.802Z,100723.32
2019-04-01T11:40:29.241Z,100721.98
2019-04-01T11:42:58.829Z,100715.94
2019-04-01T11:45:28.219Z,100717.48
2019-04-01T11:47:57.770Z,100708.88
2019-04-01T11:50:27.184Z,100712.02
2019-04-01T11:52:56.617Z,100701.95
2019-04-01T11:55:26.004Z,100699.64
2019-04-01T11:57:55.427Z,100701.30
2019-04-01T12:00:26.371Z,100689.50
2019-04-01T12:02:55.962Z,100686.95
2019-04-01T12:05:25.359Z,100678.58
2019-04-01T12:07:54.804Z,100676.76
2019-04-01T12:10:24.190Z,100670.83
2019-04-01T12:12:53.624Z,100664.08
2019-04-01T12:15:23.017Z,100666.44
2019-04-01T12:17:52.426Z,100649.54
2019-04-01T12:20:21.827Z,100649.19
2019-04-01T12:22:53.184Z,100657.05
2019-04-01T12:25:22.551Z,100648.70
2019-04-01T12:27:51.975Z,100636.94
2019-04-01T12:30:21.361Z,100636.08
2019-04-01T12:32:50.830Z,100638.62
2019-04-01T12:35:20.243Z,100638.05
2019-04-01T12:37:49.649Z,100632.50
2019-04-01T12:40:19.018Z,100631.66
2019-04-01T12:42:50.803Z,100627.06
2019-04-01T12:45:19.558Z,100626.81
2019-04-01T12:47:49.033Z,100616.52
2019-04-01T12:50:18.431Z,100605.39
2019-04-01T12:52:47.853Z,100611.56
2019-04-01T12:55:17.215Z,100608.36
2019-04-01T12:57:48.471Z,100599.42
2019-04-01T13:00:17.847Z,100598.22
2019-04-01T13:02:47.288Z,100589.42
2019-04-01T13:05:16.646Z,100586.00
2019-04-01T13:07:46.027Z,100585.92
2019-04-01T13:10:15.462Z,100585.41
2019-04-01T13:12:46.335Z,100574.35
2019-04-01T13:15:15.991Z,100568.73
2019-04-01T13:17:45.382Z,100565.06
2019-04-01T13:20:15.017Z,100560.26
2019-04-01T13:22:44.562Z,100555.03
2019-04-01T13:25:14.261Z,100554.86
2019-04-01T13:27:43.818Z,100554.77
2019-04-01T13:30:13.314Z,100544.24
2019-04-01T13:32:42.726Z,100545.42
2019-04-01T13:35:12.143Z,100539.98
2019-04-01T13:37:41.528Z,100538.14
2019-04-01T13:40:11.052Z,100529.92
2019-04-01T13:42:40.435Z,100526.92
2019-04-01T13:45:09.874Z,100520.92
2019-04-01T13:47:41.265Z,100517.52
2019-04-01T13:50:10.482Z,100504.84
2019-04-01T13:52:39.837Z,100505.50
2019-04-01T13:55:10.049Z,100496.39
2019-04-01T13:57:41.903Z,100502.63
2019-04-01T14:00:11.831Z,100494.86
2019-04-01T14:02:42.742Z,100490.86
2019-04-01T14:05:12.213Z,100493.82
2019-04-01T14:07:41.599Z,100482.41
2019-04-01T14:10:11.278Z,100479.21
2019-04-01T14:12:40.908Z,100470.48
2019-04-01T14:15:10.431Z,100466.25
2019-04-01T14:17:40.202Z,100470.00
2019-04-01T14:20:09.556Z,100461.74
2019-04-01T14:22:39.011Z,100456.75
2019-04-01T14:25:08.407Z,100461.57
2019-04-01T14:27:39.284Z,100459.17
2019-04-01T14:30:08.810Z,100444.17
2019-04-01T14:32:38.694Z,100447.86
2019-04-01T14:35:08.211Z,100449.34
2019-04-01T14:37:37.726Z,100431.12
2019-04-01T14:40:08.596Z,100430.19
2019-04-01T14:42:39.651Z,100432.77
2019-04-01T14:45:09.810Z,100431.61
2019-04-01T14:47:55.877Z,100425.34
2019-04-01T14:50:10.324Z,100430.59
2019-04-01T14:52:41.310Z,100415.18
2019-04-01T14:55:11.038Z,100419.70
2019-04-01T14:57:40.503Z,100415.75
2019-04-01T15:00:11.593Z,100411.22
2019-04-01T15:02:41.104Z,100406.14
2019-04-01T15:05:10.590Z,100404.44
2019-04-01T15:07:40.032Z,100397.20
2019-04-01T15:10:09.425Z,100401.30
2019-04-01T15:12:39.645Z,100393.85
2019-04-01T15:15:09.808Z,100396.13
2019-04-01T15:17:39.272Z,100390.05
2019-04-01T15:20:08.725Z,100391.41
2019-04-01T15:22:38.091Z,100396.05
2019-04-01T15:25:07.657Z,100383.30
2019-04-01T15:27:37.053Z,100379.20
2019-04-01T15:30:07.199Z,100375.90
2019-04-01T15:32:36.612Z,100373.86
2019-04-01T15:35:06.777Z,100379.17
2019-04-01T15:37:36.229Z,100375.47
2019-04-01T15:40:06.901Z,100368.64
2019-04-01T15:42:36.356Z,100364.28
2019-04-01T15:45:06.375Z,100364.16
2019-04-01T15:47:36.212Z,100361.61
2019-04-01T15:50:06.201Z,100361.98
2019-04-01T15:52:36.299Z,100356.86
2019-04-01T15:55:06.189Z,100349.39
2019-04-01T15:57:35.697Z,100343.73
2019-04-01T16:00:05.528Z,100338.02
2019-04-01T16:02:34.888Z,100333.70
2019-04-01T16:05:05.912Z,100340.66
2019-04-01T16:07:35.479Z,100332.76
2019-04-01T16:10:05.394Z,100334.22
2019-04-01T16:12:34.993Z,100336.98
2019-04-01T16:15:04.589Z,100329.45
2019-04-01T16:17:34.225Z,100327.45
2019-04-01T16:20:03.995Z,100324.52
2019-04-01T16:22:34.853Z,100323.09
2019-04-01T16:25:06.157Z,100320.44
2019-04-01T16:27:36.390Z,100309.84
2019-04-01T16:30:07.335Z,100309.61
2019-04-01T16:32:40.567Z,100307.01
2019-04-01T16:35:13.445Z,100310.73
2019-04-01T16:37:42.814Z,100303.38
2019-04-01T16:40:12.194Z,100304.59
2019-04-01T16:42:41.672Z,100301.44
2019-04-01T16:45:12.449Z,100308.25
2019-04-01T16:47:42.590Z,100305.88
2019-04-01T16:50:11.983Z,100302.68
2019-04-01T16:52:41.410Z,100298.91
2019-04-01T16:55:10.812Z,100297.22
2019-04-01T16:57:40.549Z,100302.20
2019-04-01T17:00:09.963Z,100297.80
2019-04-01T17:02:39.442Z,100295.97
2019-04-01T17:05:10.506Z,100285.27
2019-04-01T17:07:43.689Z,100287.64
2019-04-01T17:10:20.039Z,100280.50
2019-04-01T17:12:50.915Z,100295.90
2019-04-01T17:15:21.390Z,100291.30
2019-04-01T17:17:51.223Z,100290.91
2019-04-01T17:20:20.719Z,100287.17
2019-04-01T17:22:50.199Z,100289.62
2019-04-01T17:25:19.625Z,100289.74
2019-04-01T17:27:49.052Z,100288.61
2019-04-01T17:30:18.507Z,100286.67
2019-04-01T17:32:48.063Z,100288.53
2019-04-01T17:35:17.413Z,100282.67
2019-04-01T17:37:46.881Z,100279.59
2019-04-01T17:40:17.239Z,100282.47
2019-04-01T17:42:47.090Z,100285.48
2019-04-01T17:45:36.763Z,100280.05
2019-04-01T17:48:06.781Z,100284.42
2019-04-01T17:50:36.167Z,100277.64
2019-04-01T17:53:06.810Z,100281.88
2019-04-01T17:55:36.423Z,100288.00
2019-04-01T17:58:06.482Z,100282.49
2019-04-01T18:00:37.915Z,100287.78
2019-04-01T18:03:09.341Z,100289.50
2019-04-01T18:05:38.437Z,100288.27
2019-04-01T18:08:07.893Z,100283.64
2019-04-01T18:10:37.250Z,100283.64
2019-04-01T18:13:06.727Z,100279.12
2019-04-01T18:15:36.126Z,100282.84
2019-04-01T18:18:05.636Z,100280.00
2019-04-01T18:20:34.983Z,100281.34
2019-04-01T18:23:04.472Z,100284.61
2019-04-01T18:25:33.918Z,100285.45
2019-04-01T18:28:03.361Z,100282.81
2019-04-01T18:30:32.743Z,100277.79
2019-04-01T18:33:02.336Z,100281.67
2019-04-01T18:35:31.708Z,100274.64
2019-04-01T18:38:01.108Z,100284.05
2019-04-01T18:40:33.292Z,100286.27
2019-04-01T18:43:01.729Z,100283.61
2019-04-01T18:45:31.157Z,100282.56
2019-04-01T18:48:00.562Z,100287.30
2019-04-01T18:50:30.030Z,100284.48
2019-04-01T18:52:59.373Z,100287.98
2019-04-01T18:55:28.833Z,100278.62
2019-04-01T18:57:58.292Z,100285.34
2019-04-01T19:00:27.751Z,100289.75
2019-04-01T19:02:57.661Z,100288.42
2019-04-01T19:05:27.228Z,100290.09
2019-04-01T19:07:56.628Z,100290.77
2019-04-01T19:10:26.190Z,100288.59
2019-04-01T19:13:05.899Z,100292.11
2019-04-01T19:15:28.060Z,100296.48
2019-04-01T19:17:57.885Z,100288.38
2019-04-01T19:20:30.206Z,100294.11
2019-04-01T19:22:58.631Z,100286.41
2019-04-01T19:25:28.146Z,100292.97
2019-04-01T19:27:57.626Z,100294.46
2019-04-01T19:30:27.077Z,100298.48
2019-04-01T19:32:56.461Z,100290.27
2019-04-01T19:35:25.950Z,100292.11
2019-04-01T19:37:56.282Z,100294.28
2019-04-01T19:40:26.201Z,100289.10
2019-04-01T19:42:55.968Z,100289.76
2019-04-01T19:45:25.679Z,100295.45
2019-04-01T19:47:57.306Z,100295.45
2019-04-01T19:50:26.330Z,100296.49
2019-04-01T19:52:55.745Z,100300.17
2019-04-01T19:55:25.273Z,100292.28
2019-04-01T19:57:56.040Z,100290.92
2019-04-01T20:00:28.100Z,100293.80
2019-04-01T20:02:56.898Z,100288.77
2019-04-01T20:05:26.407Z,100288.88
2019-04-01T20:07:55.902Z,100290.56
2019-04-01T20:10:28.254Z,100292.25
2019-04-01T20:12:56.601Z,100290.74
2019-04-01T20:15:26.030Z,100294.27
2019-04-01T20:17:55.450Z,100287.22
2019-04-01T20:20:24.994Z,100286.69
2019-04-01T20:22:54.750Z,100295.08
2019-04-01T20:25:24.158Z,100293.74
2019-04-01T20:27:53.834Z,100294.58
2019-04-01T20:30:23.912Z,100289.02
2019-04-01T20:32:53.407Z,100294.72
2019-04-01T20:35:24.076Z,100288.66
2019-04-01T20:37:53.810Z,100283.96
2019-04-01T20:40:24.258Z,100285.30
2019-04-01T20:42:55.045Z,100277.72
2019-04-01T20:45:25.933Z,100276.88
2019-04-01T20:47:55.626Z,100273.32
2019-04-01T20:50:25.526Z,100275.49
2019-04-01T20:52:55.358Z,100272.47
2019-04-01T20:55:25.050Z,100270.13
2019-04-01T20:57:55.572Z,100267.95
2019-04-01T21:00:25.333Z,100269.45
2019-04-01T21:02:55.140Z,100269.95
2019-04-01T21:05:24.796Z,100275.12
2019-04-01T21:07:54.441Z,100262.70
2019-04-01T21:10:24.209Z,100267.22
2019-04-01T21:12:53.850Z,100262.33
2019-04-01T21:15:23.749Z,100258.59
2019-04-01T21:17:53.394Z,100266.12
2019-04-01T21:20:23.050Z,100256.03
2019-04-01T21:22:52.797Z,100257.53
2019-04-01T21:25:22.447Z,100253.83
2019-04-01T21:27:53.083Z,100255.66
2019-04-01T21:30:23.022Z,100253.12
2019-04-01T21:32:52.655Z,100250.44
2019-04-01T21:35:22.232Z,100249.09
2019-04-01T21:37:52.011Z,100245.73
2019-04-01T21:40:21.777Z,100247.73
2019-04-01T21:42:51.578Z,100238.68
2019-04-01T21:45:21.667Z,100236.80
2019-04-01T21:47:51.656Z,100241.96
2019-04-01T21:50:21.412Z,100237.28
2019-04-01T21:52:51.163Z,100233.14
2019-04-01T21:55:20.990Z,100237.34
2019-04-01T21:57:51.331Z,100236.00
2019-04-01T22:00:39.065Z,100230.64
2019-04-01T22:03:08.735Z,100238.64
2019-04-01T22:05:38.312Z,100227.89
2019-04-01T22:08:07.943Z,100226.16
2019-04-01T22:10:37.584Z,100223.12
2019-04-01T22:13:07.273Z,100222.39
2019-04-01T22:15:36.896Z,100222.39
2019-04-01T22:18:06.666Z,100224.73
2019-04-01T22:20:36.312Z,100226.57
2019-04-01T22:23:06.286Z,100222.89
2019-04-01T22:25:36.239Z,100223.39
2019-04-01T22:28:05.992Z,100217.02
2019-04-01T22:30:35.653Z,100215.18
2019-04-01T22:33:05.225Z,100215.52
2019-04-01T22:35:38.753Z,100214.50
2019-04-01T22:38:06.620Z,100206.47
2019-04-01T22:40:36.418Z,100203.61
2019-04-01T22:43:06.119Z,100202.27
2019-04-01T22:45:35.761Z,100200.11
2019-04-01T22:48:05.423Z,100201.80
2019-04-01T22:50:35.065Z,100200.44
2019-04-01T22:53:04.951Z,100195.02
2019-04-01T22:55:34.731Z,100199.38
2019-04-01T22:58:04.488Z,100196.02
2019-04-01T23:00:34.453Z,100194.98
2019-04-01T23:03:04.103Z,100192.75
2019-04-01T23:05:33.762Z,100187.72
2019-04-01T23:08:03.442Z,100192.70
2019-04-01T23:10:33.078Z,100182.98
2019-04-01T23:13:02.740Z,100182.89
2019-04-01T23:15:32.394Z,100183.35
2019-04-01T23:18:02.132Z,100185.84
2019-04-01T23:20:33.241Z,100175.06
2019-04-01T23:23:03.032Z,100177.87
2019-04-01T23:25:32.758Z,100174.70
2019-04-01T23:28:02.323Z,100167.67
2019-04-01T23:30:32.005Z,100172.09
2019-04-01T23:33:01.659Z,100166.44
2019-04-01T23:35:31.299Z,100166.06
2019-04-01T23:38:00.849Z,100169.58
2019-04-01T23:40:32.215Z,100167.25
2019-04-01T23:43:02.093Z,100172.41
2019-04-01T23:45:31.722Z,100169.89
2019-04-01T23:48:01.514Z,100164.83
2019-04-01T23:50:31.369Z,100154.94
2019-04-01T23:53:02.149Z,100160.94
2019-04-01T23:55:32.118Z,100153.08
2019-04-01T23:58:01.796Z,100153.23
